Date,TemperatureHighF,TemperatureAvgF,TemperatureLowF,DewpointHighF,DewpointAvgF,DewpointLowF,HumidityHigh,HumidityAvg,HumidityLow,PressureMaxIn,PressureMinIn,WindSpeedMaxMPH,WindSpeedAvgMPH,GustSpeedMaxMPH,PrecipitationSumIn
2013-3-1,31,30,29,30,29,28,97,97,95,29.65,29.54,13,3,13,0.14
2013-3-2,39,34,30,35,32,29,97,91,84,29.62,29.58,12,1,12,0.28
2013-3-3,44,38,34,38,34,31,95,87,67,29.60,29.46,9,1,10,0.03
2013-3-4,36,32,29,33,30,27,97,93,84,29.69,29.44,15,4,20,0.33
2013-3-5,41,35,33,35,33,32,97,91,77,30.17,29.69,18,4,18,0.07
2013-3-6,36,32,30,32,28,22,96,83,69,30.32,30.16,22,6,22,0.00
2013-3-7,36,32,30,24,23,22,76,71,60,30.28,30.15,22,7,22,0.01
2013-3-8,45,34,28,25,22,19,81,63,36,30.25,30.13,26,6,26,0.00
2013-3-9,41,33,27,25,23,22,83,69,49,30.40,30.23,15,4,17,0.00
2013-3-10,39,30,22,27,24,20,92,81,59,30.44,30.30,9,2,16,0.00
2013-3-11,33,32,31,30,30,27,90,90,87,30.32,30.25,9,2,9,0.00
2013-3-12,50,41,33,47,39,30,100,91,80,30.25,29.79,19,5,19,0.36
2013-3-13,49,42,29,48,40,26,95,90,78,29.79,29.64,17,2,18,0.30
2013-3-14,42,34,24,30,24,13,93,68,47,29.71,29.59,21,3,21,0.00
2013-3-15,36,26,18,20,12,7,85,58,31,29.77,29.59,21,4,26,0.00
2013-3-16,34,26,18,21,14,8,89,61,40,29.89,29.61,16,2,17,0.00
2013-3-17,30,21,11,13,6,-2,90,56,27,30.29,29.89,31,4,34,0.00
2013-3-18,35,22,7,18,5,-5,82,51,25,30.43,30.29,21,2,21,0.00
2013-3-19,28,25,23,24,18,4,91,76,39,30.32,29.71,17,2,17,0.00
2013-3-20,36,25,17,26,20,14,91,81,59,29.71,29.55,23,3,23,0.27
2013-3-21,43,29,12,23,18,9,93,66,33,29.75,29.61,15,2,18,0.21
2013-3-22,42,28,6,20,16,2,91,64,37,29.62,29.54,19,3,19,0.01
2013-3-23,41,33,24,26,22,16,74,62,46,29.58,29.41,27,6,29,0.00
2013-3-24,46,38,28,29,26,23,85,65,46,29.76,29.56,20,3,20,0.00
2013-3-25,46,39,23,32,28,20,89,64,50,29.77,29.62,12,2,12,0.00
2013-3-26,48,37,28,32,27,23,91,68,45,29.69,29.56,18,2,18,0.00
2013-3-27,42,36,29,39,34,26,94,90,84,29.87,29.67,13,1,13,0.22
2013-3-28,53,40,31,38,32,28,94,78,43,29.94,29.86,11,1,11,0.00
2013-3-29,54,42,30,39,32,28,95,72,43,29.98,29.91,14,2,14,0.00
2013-3-30,55,39,26,33,24,13,94,62,21,30.07,29.96,16,2,16,0.00
2013-3-31,57,38,20,34,23,16,93,61,23,30.12,29.88,18,2,18,0.00